Historyczne dane pomiarowe

Dodano dane terminowe – wersja testowa.

Dane z okresu 1951-2019

Wersja bazy: 1.34 [2019-03-16, lista zmian], aktualizacja planowana na 2019-04-15

Dane meteo z obszaru Polski uzyskane na podstawie danych udostępnionych przez Instytut Meteorologii i Gospodarki Wodnej – Państwowy Instytut Badawczy.

 

Wybierz Datę:    

       

TemperaturaWilgotnośćWiatrCiśnienieOpadyŚniegCzas trwania zjawisk
 Stacja t tx tn tng RH VA  wxwx mslp ppp RRR   cm mm wxwxwxwxwxwxwx
1980-04-17 7.7 16.0 -2.0--- 2.7 1.3---- 0.0------------
1980-04-18 7.6 17.5 -0.1--- 4.7 4.0---- 0.0------------
1980-04-19 5.1 10.9 4.1--- 7.7 7.0---- 1.0------------
1980-04-20 3.2 8.8 -0.3--- 3.3 3.3---- 0.0------------
1980-04-21 4.1 10.3 -3.7--- 6.3 3.3---- 13.7------------
1980-04-22 4.6 5.9 2.9--- 8.0 3.0---- 31.5------------
1980-04-23 6.1 9.6 3.4--- 6.7 3.3---- 2.1------------
1980-04-24 6.7 11.6 4.4--- 5.3 2.0---- 0.0------------
1980-04-25 6.6 13.0 -0.1--- 3.0 1.7---- 0.0------------
1980-04-26 8.7 14.8 1.4--- 5.3 4.0---- 2.8------------
1980-04-27 10.6 16.8 4.5--- 4.7 1.7---- 2.0------------
1980-04-28 12.0 17.2 5.5--- 6.3 3.0---- 15.4------------
1980-04-29 11.3 15.7 8.5--- 6.7 2.3---- 0.3------------
1980-04-30 11.9 17.0 7.8--- 4.7 3.0---- 0.2------------
1980-05-01 10.3 14.7 8.2--- 8.0 2.0---- 3.3------------
1980-05-02 7.3 12.6 6.2--- 8.0 2.0---- 1.2------------
1980-05-03 3.2 6.9 1.7--- 6.0 2.0---- 0.0------------
1980-05-04 3.9 7.3 -0.7--- 5.7 2.0---- 0.0------------
1980-05-05 5.9 12.5 -2.3--- 3.3 2.7---- 0.0------------
1980-05-06 8.2 14.7 -1.7--- 4.7 2.3---- 0.0------------
1980-05-07 9.7 13.0 7.1--- 8.0 3.0---- 0.0------------
1980-05-08 14.9 20.1 8.3--- 5.7 2.7---- 0.0------------
1980-05-09 15.0 22.1 6.5--- 5.0 2.0---- 9.0------------
1980-05-10 9.3 15.1 6.0--- 5.3 4.0---- 0.2------------
1980-05-11 10.0 14.8 -0.3--- 1.3 4.0---- 0.0------------
1980-05-12 6.8 12.3 -1.1--- 3.0 2.7---- 0.0------------
1980-05-13 4.8 11.1 -0.3--- 6.0 4.0---- 0.7------------
1980-05-14 3.8 9.4 -2.6--- 4.7 3.0---- 0.0------------
1980-05-15 4.7 10.6 -3.1--- 4.0 1.3---- 0.0------------
1980-05-16 7.6 14.8 -3.6--- 3.7 2.0---- 0.0------------
155.3 ms

 

Źródłem pochodzenia danych jest Instytut Meteorologii i Gospodarki Wodnej – Państwowy Instytut Badawczy. Dane Instytutu Meteorologii i Gospodarki Wodnej – Państwowego Instytutu Badawczego zostały przetworzone.

Dane źródłowe można odnaleźć na stronie https://dane.imgw.pl